Time;durP1;ratioP1;P1;durP2;ratioP2;P2;SDS_P1;SDS_P2;PMS_P1;PMS_P2;Temp;Humidity;BMP_temperature;BMP_pressure;BME280_temperature;BME280_humidity;BME280_pressure;Samples;Min_cycle;Max_cycle;Signal;HPM_P1;HPM_P2
2021/10/17 00:00:58;;;;;;;1.23;1.13;;;;;;;9.40;81.56;93619.56;5090847;28;20067;-42
2021/10/17 00:03:23;;;;;;;2.28;2.08;;;;;;;9.38;81.69;93619.31;5091827;28;20478;-42
2021/10/17 00:05:48;;;;;;;2.42;2.22;;;;;;;9.40;81.82;93616.78;5092068;28;20024;-43
2021/10/17 00:08:14;;;;;;;1.88;1.73;;;;;;;9.45;81.57;93618.66;5109170;28;20024;-41
2021/10/17 00:10:39;;;;;;;0.73;0.68;;;;;;;9.50;81.10;93621.31;5112376;28;20493;-42
2021/10/17 00:13:07;;;;;;;0.50;0.50;;;;;;;9.56;80.87;93629.44;5111834;28;20024;-43
2021/10/17 00:15:34;;;;;;;0.68;0.50;;;;;;;9.53;81.12;93622.25;5111662;28;20046;-43
2021/10/17 00:18:00;;;;;;;1.58;1.48;;;;;;;9.52;80.87;93631.78;5111683;28;20019;-43
2021/10/17 00:20:26;;;;;;;1.00;0.90;;;;;;;9.46;80.81;93628.44;5112099;28;20043;-43
2021/10/17 00:22:52;;;;;;;0.55;0.52;;;;;;;9.45;81.57;93624.19;5111730;28;20020;-43
2021/10/17 00:25:19;;;;;;;1.63;1.25;;;;;;;9.53;81.16;93625.00;5112019;28;20024;-44
2021/10/17 00:27:45;;;;;;;1.90;1.40;;;;;;;9.56;80.97;93621.91;5111925;28;20020;-44
2021/10/17 00:30:11;;;;;;;2.22;1.00;;;;;;;9.58;81.22;93616.59;5111710;28;20023;-43
2021/10/17 00:32:37;;;;;;;0.70;0.70;;;;;;;9.56;80.94;93619.16;5111664;28;20076;-43
2021/10/17 00:35:05;;;;;;;0.90;0.80;;;;;;;9.46;80.55;93609.13;5111531;28;20106;-43
2021/10/17 00:37:31;;;;;;;1.30;1.05;;;;;;;9.45;80.99;93615.91;5111520;28;20036;-42
2021/10/17 00:39:56;;;;;;;0.75;0.75;;;;;;;9.53;81.02;93625.00;5111128;28;20102;-44
2021/10/17 00:42:22;;;;;;;0.50;0.50;;;;;;;9.47;81.14;93622.38;5110052;28;20138;-43
2021/10/17 00:44:58;;;;;;;1.15;0.70;;;;;;;9.54;81.08;93620.97;5111644;28;20107;-43
2021/10/17 00:47:24;;;;;;;1.50;1.20;;;;;;;9.52;81.02;93624.25;5111701;28;20095;-43
2021/10/17 00:49:49;;;;;;;0.88;0.60;;;;;;;9.47;80.73;93625.13;5111281;28;20185;-44
2021/10/17 00:52:15;;;;;;;0.93;0.45;;;;;;;9.43;81.01;93624.72;5111394;28;20047;-45
2021/10/17 00:54:45;;;;;;;0.50;0.50;;;;;;;9.40;81.14;93622.31;5110147;28;20043;-44
2021/10/17 00:57:11;;;;;;;0.30;0.30;;;;;;;9.38;81.31;93622.81;5111207;28;20024;-45
2021/10/17 00:59:37;;;;;;;0.75;0.60;;;;;;;9.44;81.15;93617.19;5111185;28;20023;-45
2021/10/17 01:02:03;;;;;;;0.82;0.50;;;;;;;9.51;81.17;93624.78;5111327;28;20103;-44
2021/10/17 01:04:28;;;;;;;0.60;0.60;;;;;;;9.43;81.41;93621.22;5093489;28;20028;-43
2021/10/17 01:06:54;;;;;;;0.43;0.40;;;;;;;9.40;81.37;93619.56;5090996;28;20031;-45
2021/10/17 01:09:20;;;;;;;0.30;0.30;;;;;;;9.42;81.03;93619.75;5089442;28;20080;-44
2021/10/17 01:11:47;;;;;;;1.50;0.50;;;;;;;9.37;81.15;93626.13;5090766;28;20024;-44
2021/10/17 01:14:21;;;;;;;0.45;0.40;;;;;;;9.43;80.64;93619.22;5090854;28;20049;-45
2021/10/17 01:16:47;;;;;;;1.30;0.80;;;;;;;9.32;81.09;93608.44;5090800;28;20042;-44
2021/10/17 01:19:14;;;;;;;0.63;0.50;;;;;;;9.35;81.17;93623.16;5090500;28;20019;-45
2021/10/17 01:21:40;;;;;;;0.60;0.60;;;;;;;9.37;81.27;93620.63;5090785;28;20024;-43
2021/10/17 01:24:07;;;;;;;1.63;1.25;;;;;;;9.28;81.52;93624.56;5090534;28;20035;-43
2021/10/17 01:26:32;;;;;;;0.88;0.77;;;;;;;9.30;81.20;93618.53;5090487;28;20024;-44
2021/10/17 01:28:58;;;;;;;0.30;0.30;;;;;;;9.37;81.12;93628.88;5090557;28;20166;-44
2021/10/17 01:31:50;;;;;;;0.40;0.40;;;;;;;9.32;81.13;93621.47;5097979;28;20020;-43
2021/10/17 01:34:16;;;;;;;0.70;0.70;;;;;;;9.36;81.25;93633.66;5111019;28;20538;-45
2021/10/17 01:36:42;;;;;;;0.55;0.50;;;;;;;9.31;81.74;93628.28;5110743;28;20020;-43
2021/10/17 01:39:10;;;;;;;0.52;0.50;;;;;;;9.35;80.88;93625.94;5110579;28;20030;-43
2021/10/17 01:41:35;;;;;;;0.65;0.65;;;;;;;9.33;81.14;93631.22;5110398;28;20035;-43
2021/10/17 01:44:06;;;;;;;0.60;0.60;;;;;;;9.42;80.48;93628.75;5110608;28;20039;-43
2021/10/17 01:46:33;;;;;;;1.05;0.63;;;;;;;9.36;80.79;93619.13;5110965;28;20046;-43
2021/10/17 01:48:59;;;;;;;0.60;0.60;;;;;;;9.23;81.02;93622.69;5110616;28;20027;-44
2021/10/17 01:51:24;;;;;;;10.48;5.28;;;;;;;9.35;80.60;93632.19;5110690;28;20030;-45
2021/10/17 01:53:50;;;;;;;35.33;20.50;;;;;;;9.37;80.60;93631.63;5110600;28;20023;-42
2021/10/17 01:56:15;;;;;;;9.63;6.93;;;;;;;9.37;80.59;93639.91;5110765;28;20032;-44
2021/10/17 01:58:40;;;;;;;5.18;3.67;;;;;;;9.23;80.43;93630.19;5110441;28;20428;-42
2021/10/17 02:01:06;;;;;;;17.30;9.95;;;;;;;9.30;80.94;93630.28;5090043;28;20028;-42
2021/10/17 02:03:31;;;;;;;14.88;9.13;;;;;;;9.28;81.09;93623.81;5090401;28;20028;-41
2021/10/17 02:05:57;;;;;;;7.65;5.30;;;;;;;9.06;81.41;93636.84;5090298;28;20024;-41
2021/10/17 02:08:23;;;;;;;4.53;3.80;;;;;;;8.98;82.37;93629.75;5090291;28;20043;-41
2021/10/17 02:10:48;;;;;;;8.20;5.82;;;;;;;9.01;82.38;93614.91;5090241;28;20028;-41
2021/10/17 02:13:14;;;;;;;8.60;6.80;;;;;;;8.92;82.09;93629.16;5090172;28;20024;-42
2021/10/17 02:15:40;;;;;;;10.20;7.43;;;;;;;9.04;83.02;93627.63;5089977;28;20028;-41
2021/10/17 02:18:05;;;;;;;9.23;7.15;;;;;;;9.01;82.82;93615.66;5088681;28;20035;-41
2021/10/17 02:20:34;;;;;;;9.18;5.15;;;;;;;8.91;82.67;93622.16;5090163;28;20024;-41
2021/10/17 02:23:00;;;;;;;6.18;3.90;;;;;;;9.02;82.92;93625.41;5089914;28;20508;-42
2021/10/17 02:25:26;;;;;;;5.65;5.03;;;;;;;9.00;83.00;93624.47;5090116;28;20040;-42
2021/10/17 02:27:51;;;;;;;7.40;5.30;;;;;;;8.88;83.15;93626.00;5089783;28;20489;-42
2021/10/17 02:30:17;;;;;;;8.35;6.20;;;;;;;8.84;83.17;93628.31;5089828;28;20027;-42
2021/10/17 02:32:42;;;;;;;8.52;6.70;;;;;;;8.84;83.69;93629.06;5089715;28;20031;-42
2021/10/17 02:35:08;;;;;;;6.43;5.55;;;;;;;8.86;82.82;93629.25;5090006;28;20035;-42
2021/10/17 02:37:33;;;;;;;8.38;5.90;;;;;;;8.87;83.73;93627.25;5090122;28;20028;-45
2021/10/17 02:39:59;;;;;;;8.07;5.78;;;;;;;8.84;83.58;93634.56;5092287;28;20031;-43
2021/10/17 02:42:25;;;;;;;6.55;4.43;;;;;;;8.86;83.89;93625.75;5113789;28;20592;-44
2021/10/17 02:44:50;;;;;;;5.05;4.03;;;;;;;9.03;83.26;93626.88;5114031;28;20015;-45
2021/10/17 02:47:16;;;;;;;6.32;4.38;;;;;;;8.92;83.43;93640.16;5113584;28;20556;-44
2021/10/17 02:49:41;;;;;;;3.60;2.80;;;;;;;9.06;83.31;93634.09;5113996;28;20031;-45
2021/10/17 02:52:06;;;;;;;3.47;2.60;;;;;;;9.09;82.67;93627.50;5113788;28;20473;-44
2021/10/17 02:54:32;;;;;;;9.48;4.25;;;;;;;9.18;82.79;93633.84;5113660;28;20032;-43
2021/10/17 02:56:57;;;;;;;5.43;4.57;;;;;;;9.22;82.27;93634.25;5096033;28;20032;-43
2021/10/17 02:59:23;;;;;;;5.50;4.00;;;;;;;9.09;nan;93624.75;5093348;28;20077;-44
2021/10/17 03:01:49;;;;;;;4.28;3.80;;;;;;;9.08;82.00;93639.78;5092981;28;20020;-43
2021/10/17 03:04:14;;;;;;;5.18;3.63;;;;;;;9.12;82.40;93640.19;5092637;28;20114;-43
2021/10/17 03:06:39;;;;;;;6.43;4.78;;;;;;;9.05;82.66;93643.59;5092984;28;20032;-43
2021/10/17 03:09:05;;;;;;;3.97;3.58;;;;;;;9.00;83.17;93643.75;5093096;28;20032;-44
2021/10/17 03:11:30;;;;;;;8.50;6.07;;;;;;;8.99;82.65;93647.75;5093087;28;20020;-43
2021/10/17 03:13:56;;;;;;;17.63;8.88;;;;;;;8.95;82.70;93639.81;5093059;28;20432;-45
2021/10/17 03:16:21;;;;;;;7.25;5.35;;;;;;;8.92;83.34;93645.66;5092778;28;20022;-42
2021/10/17 03:18:47;;;;;;;10.18;7.00;;;;;;;8.88;83.39;93648.72;5092879;28;20098;-41
2021/10/17 03:21:12;;;;;;;8.55;6.45;;;;;;;8.77;83.71;93651.00;5092898;28;20401;-41
2021/10/17 03:23:37;;;;;;;6.43;5.25;;;;;;;8.85;84.05;93649.06;5092457;28;20412;-41
2021/10/17 03:26:03;;;;;;;11.00;6.57;;;;;;;8.83;82.41;93657.13;5092792;28;20028;-42
2021/10/17 03:28:28;;;;;;;8.00;6.55;;;;;;;8.69;83.30;93659.16;5092747;28;20054;-45
2021/10/17 03:30:55;;;;;;;7.75;5.68;;;;;;;8.65;83.92;93655.22;5092555;28;20089;-45
2021/10/17 03:33:22;;;;;;;7.25;6.35;;;;;;;8.70;84.37;93643.38;5089907;28;20537;-44
2021/10/17 03:35:47;;;;;;;9.10;6.85;;;;;;;8.88;83.80;93659.75;5092317;28;20020;-43
2021/10/17 03:38:12;;;;;;;9.45;6.93;;;;;;;8.82;83.35;93661.13;5092316;28;20020;-43
2021/10/17 03:40:38;;;;;;;9.05;6.60;;;;;;;8.76;82.98;93658.50;5098547;28;20007;-43
2021/10/17 03:43:04;;;;;;;10.50;8.23;;;;;;;8.72;83.51;93652.59;5112555;27;20044;-43
2021/10/17 03:45:30;;;;;;;9.35;7.88;;;;;;;8.82;83.05;93658.38;5112834;28;20077;-44
2021/10/17 03:47:56;;;;;;;15.40;11.98;;;;;;;8.80;83.10;93661.69;5112531;28;20027;-45
2021/10/17 03:50:23;;;;;;;10.45;7.72;;;;;;;8.83;83.49;93663.38;5112784;28;20030;-44
2021/10/17 03:52:48;;;;;;;7.55;6.13;;;;;;;8.90;83.02;93662.72;5098230;27;20116;-44
2021/10/17 03:55:13;;;;;;;8.57;6.68;;;;;;;9.04;82.40;93666.19;5092329;28;20652;-45
2021/10/17 03:57:39;;;;;;;12.05;8.00;;;;;;;9.13;82.03;93662.97;5091912;28;20413;-45
2021/10/17 04:00:05;;;;;;;6.85;5.85;;;;;;;8.92;82.09;93659.44;5092123;28;20035;-45
2021/10/17 04:02:30;;;;;;;8.15;6.45;;;;;;;8.93;82.75;93669.91;5091862;28;20094;-44
2021/10/17 04:04:56;;;;;;;9.77;7.15;;;;;;;8.90;82.84;93673.72;5091458;28;20016;-44
2021/10/17 04:07:21;;;;;;;38.42;7.97;;;;;;;8.92;83.11;93667.69;5091531;28;20023;-43
2021/10/17 04:09:46;;;;;;;6.47;5.38;;;;;;;9.18;82.28;93672.41;5091659;28;20028;-44
2021/10/17 04:12:12;;;;;;;17.58;11.80;;;;;;;9.01;81.70;93667.22;5091392;28;20024;-44
2021/10/17 04:14:38;;;;;;;8.23;6.68;;;;;;;9.05;81.89;93665.63;5091308;28;20413;-45
2021/10/17 04:17:03;;;;;;;9.00;6.07;;;;;;;9.12;82.02;93670.50;5091427;28;20023;-45
2021/10/17 04:19:28;;;;;;;9.00;6.95;;;;;;;9.08;81.69;93661.81;5091600;28;20073;-45
2021/10/17 04:21:54;;;;;;;8.25;6.53;;;;;;;9.06;81.21;93653.34;5091453;28;20020;-45
2021/10/17 04:24:19;;;;;;;4.63;3.70;;;;;;;9.21;81.57;93674.06;5091134;28;20020;-44
2021/10/17 04:26:45;;;;;;;5.43;3.80;;;;;;;9.30;81.54;93665.34;5091232;28;20031;-45
2021/10/17 04:29:11;;;;;;;152.13;19.05;;;;;;;9.30;81.22;93673.63;5091210;28;20043;-44
2021/10/17 04:31:36;;;;;;;10.88;8.70;;;;;;;9.32;81.51;93680.09;5090736;28;20412;-43
2021/10/17 04:34:01;;;;;;;10.15;8.00;;;;;;;9.33;81.35;93675.31;5090484;28;20020;-44
2021/10/17 04:36:27;;;;;;;9.07;7.00;;;;;;;9.35;81.16;93683.78;5090627;28;20100;-45
2021/10/17 04:38:53;;;;;;;8.77;7.07;;;;;;;9.35;81.41;93689.31;5090808;28;20062;-44
2021/10/17 04:41:19;;;;;;;9.40;7.15;;;;;;;9.39;81.35;93686.94;5102609;28;20020;-43
2021/10/17 04:43:44;;;;;;;8.55;6.20;;;;;;;9.44;80.67;93686.09;5109532;28;20043;-44
2021/10/17 04:46:10;;;;;;;8.85;6.18;;;;;;;9.39;80.82;93687.69;5110897;28;20450;-44
2021/10/17 04:48:35;;;;;;;13.85;7.05;;;;;;;9.42;80.81;93691.41;5099669;28;20102;-45
2021/10/17 04:51:01;;;;;;;11.43;5.68;;;;;;;9.45;80.84;93695.81;5090701;28;20024;-44
2021/10/17 04:53:26;;;;;;;8.85;7.15;;;;;;;9.45;80.54;93693.06;5090701;28;20023;-45
2021/10/17 04:55:51;;;;;;;13.52;8.18;;;;;;;9.38;81.04;93696.47;5090611;28;20020;-43
2021/10/17 04:58:17;;;;;;;71.75;14.25;;;;;;;9.39;81.03;93698.72;5090284;28;20050;-43
2021/10/17 05:00:42;;;;;;;9.95;6.65;;;;;;;9.34;81.14;93704.34;5090825;28;20024;-44
2021/10/17 05:03:08;;;;;;;8.25;6.18;;;;;;;9.35;80.83;93700.31;5090328;28;20485;-43
2021/10/17 05:05:33;;;;;;;7.38;5.68;;;;;;;9.34;81.32;93696.06;5090263;28;20176;-44
2021/10/17 05:07:59;;;;;;;6.63;5.25;;;;;;;9.37;81.14;93701.28;5090377;28;20028;-43
2021/10/17 05:10:25;;;;;;;9.73;7.47;;;;;;;9.32;81.19;93706.88;5090601;28;20038;-43
2021/10/17 05:12:50;;;;;;;15.25;10.10;;;;;;;9.36;81.23;93704.53;5090499;28;20404;-44
2021/10/17 05:15:16;;;;;;;12.80;9.35;;;;;;;9.13;81.51;93682.25;5090206;28;20028;-43
2021/10/17 05:17:41;;;;;;;17.52;10.65;;;;;;;9.28;82.04;93709.25;5090481;28;20067;-44
2021/10/17 05:20:07;;;;;;;14.75;10.27;;;;;;;9.32;82.23;93720.66;5090110;28;20051;-45
2021/10/17 05:22:32;;;;;;;11.88;8.18;;;;;;;9.36;81.93;93724.56;5090077;28;20031;-43
2021/10/17 05:24:58;;;;;;;47.35;28.80;;;;;;;9.37;81.52;93717.06;5090504;28;20016;-49
2021/10/17 05:27:23;;;;;;;27.13;18.65;;;;;;;9.44;81.45;93728.16;5090394;28;20078;-45
2021/10/17 05:29:48;;;;;;;6.80;5.28;;;;;;;9.47;81.52;93732.59;5090363;28;20424;-45
2021/10/17 05:32:14;;;;;;;4.07;3.22;;;;;;;9.20;80.98;93692.63;5089953;28;20508;-45
2021/10/17 05:34:39;;;;;;;9.80;7.00;;;;;;;9.57;81.00;93735.66;5090288;28;20062;-45
2021/10/17 05:37:05;;;;;;;12.00;7.07;;;;;;;9.61;80.93;93739.56;5090388;28;20108;-43
2021/10/17 05:39:30;;;;;;;30.42;18.85;;;;;;;9.57;81.04;93733.63;5090333;28;20024;-44
2021/10/17 05:41:56;;;;;;;12.40;8.00;;;;;;;9.57;81.14;93738.41;5106795;28;20448;-44
2021/10/17 05:44:21;;;;;;;19.50;9.15;;;;;;;9.56;81.51;93734.91;5104316;28;20032;-44
2021/10/17 05:46:47;;;;;;;42.65;20.67;;;;;;;9.59;81.35;93736.63;5089793;28;20020;-43
2021/10/17 05:49:12;;;;;;;51.20;20.27;;;;;;;9.56;81.08;93737.66;5089955;28;20027;-45
2021/10/17 05:51:38;;;;;;;37.30;16.00;;;;;;;9.59;81.90;93741.38;5089888;28;20027;-44
2021/10/17 05:54:03;;;;;;;29.05;13.80;;;;;;;9.62;81.73;93745.81;5090152;28;20516;-45
2021/10/17 05:56:28;;;;;;;10.85;6.20;;;;;;;9.60;81.51;93748.34;5090095;28;20020;-43
2021/10/17 05:58:54;;;;;;;8.20;5.47;;;;;;;9.54;82.00;93745.00;5090147;28;20024;-43
2021/10/17 06:01:19;;;;;;;7.57;5.68;;;;;;;9.67;81.58;93753.97;5090097;28;20039;-44
2021/10/17 06:03:45;;;;;;;9.70;8.90;;;;;;;9.67;81.08;93751.22;5090119;28;20578;-44
2021/10/17 06:06:12;;;;;;;13.20;8.13;;;;;;;9.82;80.45;93758.88;5090134;28;20077;-45
2021/10/17 06:08:39;;;;;;;9.80;4.65;;;;;;;9.75;80.39;93762.31;5089982;28;20062;-43
2021/10/17 06:11:04;;;;;;;25.67;13.75;;;;;;;9.87;80.29;93766.31;5090054;28;20699;-43
2021/10/17 06:13:30;;;;;;;41.63;20.60;;;;;;;9.91;80.08;93761.19;5089911;28;20020;-42
2021/10/17 06:15:55;;;;;;;11.43;7.50;;;;;;;9.85;80.18;93766.81;5092979;28;20046;-43
2021/10/17 06:18:22;;;;;;;8.85;6.18;;;;;;;9.91;79.28;93761.94;5093631;28;20024;-42
2021/10/17 06:20:47;;;;;;;10.57;6.85;;;;;;;9.89;79.45;93761.72;5093569;28;20492;-42
2021/10/17 06:23:12;;;;;;;9.32;5.13;;;;;;;9.95;79.26;93758.84;5093027;28;20024;-42
2021/10/17 06:25:38;;;;;;;6.88;4.45;;;;;;;9.99;78.57;93764.75;5093185;28;20535;-42
2021/10/17 06:28:03;;;;;;;4.78;3.53;;;;;;;10.03;78.79;93762.41;5092726;28;20024;-43
2021/10/17 06:30:29;;;;;;;4.05;2.75;;;;;;;10.02;78.95;93754.66;5093069;28;20020;-42
2021/10/17 06:32:54;;;;;;;3.67;2.63;;;;;;;10.18;78.12;93753.56;5093277;28;20019;-42
2021/10/17 06:35:20;;;;;;;2.10;1.73;;;;;;;10.20;77.55;93765.53;5093164;28;20378;-43
2021/10/17 06:37:45;;;;;;;2.25;2.05;;;;;;;10.31;78.12;93770.06;5093136;28;20054;-44
2021/10/17 06:40:11;;;;;;;3.08;2.72;;;;;;;10.45;76.60;93766.66;5092860;28;20028;-43
2021/10/17 06:42:36;;;;;;;2.67;2.10;;;;;;;10.54;76.18;93780.00;5092926;28;20044;-44
2021/10/17 06:45:02;;;;;;;6.28;5.20;;;;;;;10.70;76.46;93769.78;5093261;28;20089;-45
2021/10/17 06:47:28;;;;;;;12.35;3.53;;;;;;;10.87;76.07;93767.31;5093298;28;20477;-44
2021/10/17 06:49:53;;;;;;;5.88;3.47;;;;;;;11.00;74.69;93769.25;5093312;28;20040;-45
2021/10/17 06:52:18;;;;;;;6.82;4.47;;;;;;;11.09;74.54;93775.00;5092749;28;20031;-45
2021/10/17 06:54:44;;;;;;;2.92;2.50;;;;;;;11.26;73.15;93763.50;5092712;28;20031;-45
2021/10/17 06:57:09;;;;;;;4.32;2.40;;;;;;;11.41;72.50;93760.81;5092799;28;20023;-43
2021/10/17 06:59:35;;;;;;;6.35;2.85;;;;;;;11.36;72.68;93778.28;5092350;28;20039;-43
2021/10/17 07:02:00;;;;;;;2.15;1.95;;;;;;;11.39;72.77;93755.09;5091844;28;20069;-44
2021/10/17 07:04:26;;;;;;;1.30;1.20;;;;;;;11.50;72.41;93768.56;5092129;28;20020;-43
2021/10/17 07:06:51;;;;;;;6.43;3.47;;;;;;;11.51;72.33;93763.78;5092669;28;20425;-42
2021/10/17 07:09:17;;;;;;;11.73;6.72;;;;;;;11.50;72.41;93765.78;5092533;28;20070;-42
2021/10/17 07:11:43;;;;;;;7.70;4.10;;;;;;;11.53;71.27;93750.88;5092767;28;20055;-43
2021/10/17 07:14:08;;;;;;;5.75;5.10;;;;;;;11.65;71.47;93771.38;5090837;28;20043;-42
2021/10/17 07:27:55;;;;;;;2.47;2.20;;;;;;;12.79;66.75;93789.69;5126220;27;21376;-42
2021/10/17 07:30:20;;;;;;;2.42;1.88;;;;;;;12.68;67.31;93776.22;5126170;27;20110;-42
2021/10/17 07:32:46;;;;;;;3.35;2.40;;;;;;;12.55;67.83;93770.84;5125741;27;20491;-43
2021/10/17 07:35:12;;;;;;;5.85;4.85;;;;;;;12.44;67.51;93762.91;5112831;27;20047;-42
2021/10/17 07:37:37;;;;;;;1.92;1.73;;;;;;;12.49;67.89;93780.63;5114237;28;20035;-43
2021/10/17 07:40:05;;;;;;;2.15;1.90;;;;;;;12.60;68.27;93781.03;5113959;28;20440;-42
2021/10/17 07:42:30;;;;;;;6.13;2.60;;;;;;;12.78;68.09;93777.13;5114697;27;20106;-42
2021/10/17 07:44:55;;;;;;;22.67;3.83;;;;;;;12.72;67.69;93764.75;5115330;28;20077;-43
2021/10/17 07:47:21;;;;;;;5.20;3.42;;;;;;;12.91;68.01;93782.47;5112910;27;20016;-43
2021/10/17 07:49:46;;;;;;;10.75;2.40;;;;;;;13.04;67.24;93783.56;5112498;28;20515;-42
2021/10/17 07:52:12;;;;;;;4.15;1.95;;;;;;;13.17;66.92;93786.13;5111616;28;20023;-42
2021/10/17 07:54:38;;;;;;;1.98;1.80;;;;;;;13.03;65.70;93788.38;5112294;27;20020;-43
2021/10/17 07:57:04;;;;;;;2.08;1.88;;;;;;;13.00;66.67;93785.94;5117838;28;20514;-43
2021/10/17 07:59:30;;;;;;;1.40;1.30;;;;;;;12.87;66.47;93773.78;5119007;27;20104;-42
2021/10/17 08:01:55;;;;;;;7.85;1.65;;;;;;;12.94;67.48;93783.38;5114381;27;20024;-41
2021/10/17 08:04:21;;;;;;;2.28;1.42;;;;;;;13.07;67.12;93791.53;5117102;28;20035;-40
2021/10/17 08:06:46;;;;;;;4.25;1.60;;;;;;;13.08;66.47;93789.50;5113576;28;20027;-40
2021/10/17 08:09:11;;;;;;;4.10;1.67;;;;;;;13.04;66.55;93784.28;5115893;27;20020;-41
2021/10/17 08:11:37;;;;;;;1.60;1.50;;;;;;;12.81;66.30;93750.34;5113721;27;20051;-41
2021/10/17 08:14:02;;;;;;;1.33;1.23;;;;;;;12.97;67.24;93782.28;5115812;28;20516;-41
2021/10/17 08:16:28;;;;;;;5.40;4.00;;;;;;;13.20;67.05;93785.78;5114474;28;20096;-41
2021/10/17 08:18:53;;;;;;;3.95;3.00;;;;;;;13.35;66.80;93785.75;5119771;27;20028;-41
2021/10/17 08:21:19;;;;;;;10.73;4.65;;;;;;;13.45;65.99;93786.63;5115127;28;20043;-41
2021/10/17 08:23:44;;;;;;;5.82;4.20;;;;;;;13.56;65.71;93786.22;5113168;28;20020;-43
2021/10/17 08:26:09;;;;;;;6.60;4.28;;;;;;;13.68;65.52;93784.53;5114359;27;20512;-42
2021/10/17 08:28:35;;;;;;;6.18;4.20;;;;;;;13.66;64.55;93784.31;5100978;27;20027;-43
2021/10/17 08:31:00;;;;;;;10.10;6.40;;;;;;;13.69;65.08;93790.78;5101255;28;20121;-42
2021/10/17 08:33:26;;;;;;;4.22;3.83;;;;;;;13.71;64.68;93785.41;5099521;28;20020;-41
2021/10/17 08:35:52;;;;;;;8.02;5.60;;;;;;;13.91;64.96;93792.00;5097130;28;20024;-41
2021/10/17 08:38:17;;;;;;;6.38;5.25;;;;;;;13.89;64.01;93792.56;5100312;28;20034;-42
2021/10/17 08:40:47;;;;;;;5.82;4.15;;;;;;;14.08;63.92;93792.09;5097970;28;20016;-43
2021/10/17 08:43:13;;;;;;;6.38;2.97;;;;;;;14.20;63.77;93776.50;5109134;28;20458;-42
2021/10/17 08:45:38;;;;;;;5.97;3.80;;;;;;;14.49;62.60;93804.69;5109456;28;20035;-42
2021/10/17 08:48:04;;;;;;;2.65;2.45;;;;;;;14.62;62.01;93804.41;5109770;28;20102;-42
2021/10/17 08:50:30;;;;;;;5.55;5.00;;;;;;;14.81;61.28;93807.41;5109333;28;20020;-42
2021/10/17 08:52:55;;;;;;;7.63;3.25;;;;;;;15.03;61.00;93804.41;5107798;28;20030;-45
2021/10/17 08:55:21;;;;;;;3.03;2.72;;;;;;;15.03;59.95;93803.66;5109338;28;20024;-42
2021/10/17 08:57:46;;;;;;;4.25;2.95;;;;;;;15.25;60.16;93810.34;5111247;28;20687;-44
2021/10/17 09:00:32;;;;;;;3.38;2.70;;;;;;;15.43;59.61;93803.50;5111122;28;20038;-44
2021/10/17 09:02:58;;;;;;;7.50;2.47;;;;;;;15.58;58.29;93778.31;5111063;28;20472;-44
2021/10/17 09:05:40;;;;;;;5.47;3.67;;;;;;;16.15;56.47;93800.28;5110609;28;20102;-43
2021/10/17 09:08:07;;;;;;;4.57;2.70;;;;;;;16.24;56.85;93791.97;5110649;28;20166;-44
2021/10/17 09:10:34;;;;;;;4.93;3.75;;;;;;;16.61;56.84;93801.88;5110386;28;20038;-43
2021/10/17 09:13:11;;;;;;;9.73;3.83;;;;;;;17.16;54.93;93808.81;5110498;28;20027;-43
2021/10/17 09:15:37;;;;;;;9.15;4.78;;;;;;;17.65;53.76;93796.44;5110971;28;20023;-45
2021/10/17 09:18:07;;;;;;;9.52;6.93;;;;;;;18.37;51.35;93803.72;5101862;28;20116;-45
2021/10/17 09:20:53;;;;;;;3.47;2.78;;;;;;;19.21;49.93;93801.25;5093551;28;20409;-45
2021/10/17 09:23:21;;;;;;;5.38;3.67;;;;;;;20.29;47.85;93804.22;5112933;28;20411;-44
2021/10/17 09:25:49;;;;;;;2.25;2.00;;;;;;;22.13;42.50;93797.16;5112293;28;20045;-45
2021/10/17 09:28:19;;;;;;;2.58;1.85;;;;;;;22.03;41.20;93799.38;5112766;28;20035;-45
2021/10/17 09:31:10;;;;;;;2.40;2.15;;;;;;;21.22;43.74;93795.97;5112495;28;20027;-43
2021/10/17 09:33:45;;;;;;;4.72;3.15;;;;;;;21.32;43.15;93799.38;5109122;27;20035;-44
2021/10/17 09:36:15;;;;;;;13.05;8.20;;;;;;;20.56;41.74;93795.38;5112510;28;20054;-45
2021/10/17 09:38:42;;;;;;;5.55;4.72;;;;;;;20.14;44.74;93794.13;5111931;28;20047;-44
2021/10/17 09:41:14;;;;;;;8.07;4.00;;;;;;;20.33;44.26;93791.19;5112250;28;20506;-44
2021/10/17 09:43:43;;;;;;;11.95;5.28;;;;;;;19.91;43.57;93787.69;5112219;28;20027;-44
2021/10/17 09:46:12;;;;;;;12.82;6.55;;;;;;;19.81;44.84;93781.44;5111249;28;20085;-44
2021/10/17 09:48:38;;;;;;;6.97;3.67;;;;;;;20.53;44.14;93774.88;5112142;28;20507;-44
2021/10/17 09:51:11;;;;;;;5.88;4.70;;;;;;;22.10;39.93;93767.44;5111956;28;20020;-44
2021/10/17 09:53:39;;;;;;;6.20;5.05;;;;;;;23.91;37.02;93773.59;5108783;28;20035;-43
2021/10/17 09:56:05;;;;;;;10.25;3.38;;;;;;;25.46;34.64;93764.75;5109971;28;20027;-42
2021/10/17 09:58:30;;;;;;;5.85;3.85;;;;;;;26.05;31.74;93762.31;5109836;28;20396;-43
2021/10/17 10:00:56;;;;;;;7.75;5.47;;;;;;;27.03;31.42;93754.22;5109808;28;20054;-41
2021/10/17 10:03:23;;;;;;;3.80;3.17;;;;;;;26.89;31.76;93759.38;5108408;28;20032;-41
2021/10/17 10:05:49;;;;;;;2.42;2.03;;;;;;;27.35;30.63;93751.91;5108682;28;20418;-42
2021/10/17 10:08:21;;;;;;;3.50;2.00;;;;;;;27.43;30.71;93748.63;5109599;28;20134;-41
2021/10/17 10:10:49;;;;;;;1.33;1.23;;;;;;;27.02;30.35;93737.88;5108077;28;20031;-41
2021/10/17 10:13:16;;;;;;;3.55;2.55;;;;;;;27.08;31.39;93735.28;5108103;28;20041;-44
2021/10/17 10:15:43;;;;;;;1.92;1.75;;;;;;;27.08;30.63;93737.38;5109076;28;20496;-45
2021/10/17 10:18:11;;;;;;;2.70;1.70;;;;;;;27.03;30.32;93731.56;5109176;28;20526;-44
2021/10/17 10:20:36;;;;;;;1.70;1.30;;;;;;;26.12;31.78;93724.44;5109557;28;20419;-44
2021/10/17 10:23:02;;;;;;;1.90;1.73;;;;;;;24.23;34.32;93735.72;5109087;28;20027;-45
2021/10/17 10:25:28;;;;;;;6.65;3.00;;;;;;;23.08;37.02;93729.91;5107226;28;20110;-44
2021/10/17 10:27:54;;;;;;;2.08;1.23;;;;;;;22.92;37.83;93729.06;5108017;28;20070;-43
2021/10/17 10:30:30;;;;;;;3.67;1.40;;;;;;;23.12;37.70;93715.28;5109176;28;20035;-43
2021/10/17 10:33:12;;;;;;;1.40;1.30;;;;;;;23.45;36.80;93720.53;5108972;28;20028;-44
2021/10/17 10:36:01;;;;;;;2.17;1.98;;;;;;;23.17;37.86;93720.50;5108987;28;20028;-43
2021/10/17 10:39:10;;;;;;;2.33;1.20;;;;;;;22.75;37.93;93731.63;5108664;28;20033;-43
2021/10/17 10:41:57;;;;;;;1.70;1.60;;;;;;;21.69;40.13;93732.72;5097808;28;20048;-43
2021/10/17 10:44:24;;;;;;;1.65;1.40;;;;;;;21.52;41.30;93722.66;5108669;28;20035;-44
2021/10/17 10:46:54;;;;;;;5.78;2.30;;;;;;;21.54;41.51;93733.25;5108703;28;20077;-44
2021/10/17 10:49:49;;;;;;;2.97;1.70;;;;;;;21.02;41.79;93737.22;5109170;28;20035;-43
2021/10/17 10:52:23;;;;;;;3.83;1.90;;;;;;;20.47;42.93;93738.03;5103633;28;20555;-43
2021/10/17 10:54:53;;;;;;;2.20;2.00;;;;;;;20.16;43.43;93735.38;5108757;28;20031;-45
2021/10/17 10:57:24;;;;;;;3.45;3.15;;;;;;;19.76;45.03;93738.41;5108928;28;20473;-43
2021/10/17 10:59:58;;;;;;;3.28;2.17;;;;;;;19.31;46.76;93737.53;5108538;28;20047;-42
2021/10/17 11:02:23;;;;;;;4.47;4.05;;;;;;;19.39;45.90;93735.31;5108566;28;20431;-44
2021/10/17 11:04:49;;;;;;;11.18;3.42;;;;;;;19.22;47.06;93738.34;5108251;28;20035;-44
2021/10/17 11:07:30;;;;;;;11.25;4.35;;;;;;;19.05;47.26;93735.78;5108608;28;20043;-43
2021/10/17 11:09:58;;;;;;;3.40;3.10;;;;;;;18.69;48.41;93736.84;5090699;28;20381;-44
2021/10/17 11:12:41;;;;;;;3.60;3.30;;;;;;;18.49;49.11;93740.31;5106037;28;20032;-43
2021/10/17 11:15:11;;;;;;;5.82;5.22;;;;;;;18.42;49.08;93741.94;5109329;28;20476;-45
2021/10/17 11:17:38;;;;;;;3.70;3.25;;;;;;;18.36;48.82;93732.38;5111008;28;20035;-45
2021/10/17 11:20:05;;;;;;;3.40;2.58;;;;;;;18.32;49.72;93732.81;5110593;28;20019;-44
2021/10/17 11:22:34;;;;;;;11.50;3.90;;;;;;;18.34;50.19;93729.47;5110832;28;20024;-45
2021/10/17 11:25:00;;;;;;;;;;;;;;;17.89;50.57;93731.91;5110902;28;20047;-44
2021/10/17 11:27:25;;;;;;;4.73;4.13;;;;;;;17.64;50.43;93725.16;5109245;28;19963;-43
2021/10/17 11:29:50;;;;;;;3.05;2.75;;;;;;;17.69;51.62;93732.50;5110874;28;20436;-43
2021/10/17 11:32:19;;;;;;;4.32;3.70;;;;;;;17.83;51.60;93727.94;5110705;28;20492;-44
2021/10/17 11:35:01;;;;;;;8.70;4.00;;;;;;;18.10;51.10;93728.50;5110784;28;20019;-42
2021/10/17 11:37:29;;;;;;;4.22;3.05;;;;;;;18.11;50.02;93722.31;5110681;28;20822;-43
2021/10/17 11:40:15;;;;;;;4.43;3.75;;;;;;;18.37;50.02;93722.66;5110754;28;20106;-42
2021/10/17 11:42:44;;;;;;;4.53;4.00;;;;;;;18.27;50.62;93727.56;5109712;28;20118;-42
2021/10/17 11:45:17;;;;;;;4.15;3.85;;;;;;;18.22;51.22;93729.34;5088358;28;20111;-42
2021/10/17 11:47:47;;;;;;;3.75;3.42;;;;;;;18.11;50.70;93727.16;5087136;28;20024;-42